Time;durP1;ratioP1;P1;durP2;ratioP2;P2;SDS_P1;SDS_P2;PMS_P1;PMS_P2;Temp;Humidity;BMP_temperature;BMP_pressure;BME280_temperature;BME280_humidity;BME280_pressure;Samples;Min_cycle;Max_cycle;Signal;HPM_P1;HPM_P2
2023/02/11 00:02:04;;;;;;;45.92;24.90;;;2.50;59.50;;;;;;5041401;28;20520;-69
2023/02/11 00:04:30;;;;;;;50.35;26.10;;;2.60;59.00;;;;;;5041673;28;20419;-69
2023/02/11 00:06:56;;;;;;;52.35;26.35;;;2.50;58.90;;;;;;5042616;28;20134;-69
2023/02/11 00:09:22;;;;;;;60.58;26.75;;;2.50;59.10;;;;;;5044556;28;20183;-69
2023/02/11 00:11:48;;;;;;;49.78;27.08;;;2.50;59.10;;;;;;5042876;28;20029;-69
2023/02/11 00:14:14;;;;;;;51.17;26.95;;;2.50;59.10;;;;;;5042429;28;20076;-69
2023/02/11 00:16:40;;;;;;;57.35;28.30;;;2.50;59.20;;;;;;5042495;28;20044;-69
2023/02/11 00:19:06;;;;;;;59.58;28.98;;;2.50;59.30;;;;;;5041818;28;20013;-69
2023/02/11 00:21:32;;;;;;;57.90;27.48;;;2.50;59.40;;;;;;5043241;28;20034;-69
2023/02/11 00:24:01;;;;;;;57.65;28.77;;;2.50;59.40;;;;;;5044334;28;20029;-70
2023/02/11 00:26:33;;;;;;;59.83;30.25;;;2.50;59.50;;;;;;5043364;28;20009;-69
2023/02/11 00:28:59;;;;;;;56.95;27.63;;;2.50;59.60;;;;;;5043000;28;20482;-69
2023/02/11 00:31:26;;;;;;;52.00;27.00;;;2.50;59.50;;;;;;5043410;28;20037;-71
2023/02/11 00:33:52;;;;;;;53.10;26.67;;;2.40;59.50;;;;;;5039648;28;20037;-69
2023/02/11 00:36:25;;;;;;;44.50;23.70;;;2.40;59.50;;;;;;5040522;28;20032;-69
2023/02/11 00:38:52;;;;;;;57.85;27.70;;;2.40;59.60;;;;;;5039555;28;20032;-69
2023/02/11 00:41:19;;;;;;;66.22;30.13;;;2.40;59.60;;;;;;5040102;28;20084;-69
2023/02/11 00:43:45;;;;;;;62.03;29.05;;;2.40;59.50;;;;;;5043810;28;20112;-69
2023/02/11 00:46:12;;;;;;;55.05;27.45;;;2.40;59.60;;;;;;5043480;28;20101;-69
2023/02/11 00:48:38;;;;;;;55.70;28.73;;;2.40;59.70;;;;;;5042224;28;20107;-69
2023/02/11 00:51:04;;;;;;;54.72;26.48;;;2.40;59.60;;;;;;5041022;28;20124;-69
2023/02/11 00:53:30;;;;;;;58.72;30.45;;;2.40;59.60;;;;;;5041696;28;20044;-69
2023/02/11 00:55:56;;;;;;;67.90;30.80;;;2.30;59.70;;;;;;5043008;28;20025;-69
2023/02/11 00:58:22;;;;;;;60.38;31.08;;;2.30;59.60;;;;;;5041436;28;20032;-69
2023/02/11 01:00:48;;;;;;;53.55;28.20;;;2.20;59.60;;;;;;5042767;28;20116;-69
2023/02/11 01:03:14;;;;;;;57.78;29.77;;;2.20;59.70;;;;;;5039474;28;20029;-69
2023/02/11 01:05:40;;;;;;;58.90;29.50;;;2.10;60.40;;;;;;5042287;28;20036;-69
2023/02/11 01:08:06;;;;;;;56.95;28.05;;;2.10;59.80;;;;;;5039658;28;20335;-69
2023/02/11 01:10:32;;;;;;;56.72;27.83;;;2.10;59.90;;;;;;5041752;28;20521;-69
2023/02/11 01:12:58;;;;;;;54.72;26.67;;;2.10;59.90;;;;;;5043390;28;20483;-69
2023/02/11 01:15:24;;;;;;;58.65;32.60;;;2.10;60.00;;;;;;5040788;28;20053;-69
2023/02/11 01:17:50;;;;;;;57.67;30.40;;;2.00;60.00;;;;;;5041128;28;20383;-68
2023/02/11 01:20:21;;;;;;;62.10;31.38;;;2.00;60.10;;;;;;5041018;28;20479;-69
2023/02/11 01:22:46;;;;;;;61.60;30.35;;;1.90;60.30;;;;;;5039859;28;20035;-69
2023/02/11 01:25:12;;;;;;;55.28;28.83;;;2.00;60.50;;;;;;5041467;28;20043;-69
2023/02/11 01:27:38;;;;;;;61.25;30.52;;;2.00;60.50;;;;;;5041952;28;20024;-69
2023/02/11 01:30:06;;;;;;;56.50;27.95;;;2.00;60.50;;;;;;5042548;28;20424;-69
2023/02/11 01:32:32;;;;;;;53.22;26.38;;;2.00;60.60;;;;;;5038897;28;20030;-69
2023/02/11 01:34:58;;;;;;;53.70;27.67;;;2.00;61.40;;;;;;5041089;28;20432;-69
2023/02/11 01:37:24;;;;;;;54.53;27.83;;;2.00;60.60;;;;;;5041121;28;20028;-69
2023/02/11 01:39:50;;;;;;;64.70;31.15;;;2.10;60.60;;;;;;5040785;28;20411;-69
2023/02/11 01:42:19;;;;;;;61.25;30.63;;;2.10;60.60;;;;;;5041611;28;20136;-69
2023/02/11 01:44:48;;;;;;;61.03;31.77;;;2.10;60.50;;;;;;5040224;28;20025;-69
2023/02/11 01:47:13;;;;;;;65.15;31.98;;;2.10;60.50;;;;;;5040324;28;20033;-69
2023/02/11 01:49:46;;;;;;;67.38;31.60;;;2.10;60.50;;;;;;5078903;28;20040;-69
2023/02/11 01:52:28;;;;;;;60.10;30.52;;;2.20;60.50;;;;;;5122261;28;20023;-69
2023/02/11 01:57:52;;;;;;;65.85;31.02;;;2.20;60.30;;;;;;5123163;28;20107;-69
2023/02/11 02:00:32;;;;;;;61.58;30.55;;;2.20;60.10;;;;;;5122506;28;20015;-69
2023/02/11 02:03:13;;;;;;;59.17;28.35;;;2.30;60.10;;;;;;5122467;28;20406;-69
2023/02/11 02:05:47;;;;;;;56.65;29.35;;;2.30;60.00;;;;;;5122689;28;20026;-69
2023/02/11 02:08:46;;;;;;;58.10;28.67;;;2.30;60.00;;;;;;5122686;28;20019;-69
2023/02/11 02:11:12;;;;;;;57.38;28.38;;;2.30;59.90;;;;;;5121547;28;20027;-69
2023/02/11 02:13:38;;;;;;;59.33;29.73;;;2.30;59.80;;;;;;5121177;28;20027;-69
2023/02/11 02:16:05;;;;;;;63.95;30.83;;;2.30;59.80;;;;;;5122978;28;20022;-69
2023/02/11 02:18:55;;;;;;;66.32;31.20;;;2.30;59.80;;;;;;5121310;28;20019;-69
2023/02/11 02:21:38;;;;;;;62.05;30.10;;;2.30;59.70;;;;;;5121153;28;20034;-69
2023/02/11 02:24:37;;;;;;;57.92;30.42;;;2.30;59.70;;;;;;5104774;28;20507;-69
2023/02/11 02:27:30;;;;;;;59.83;29.67;;;2.30;59.70;;;;;;5091853;28;20039;-70
2023/02/11 02:30:24;;;;;;;59.45;30.02;;;2.30;59.70;;;;;;5121934;28;20027;-69
2023/02/11 02:33:17;;;;;;;56.70;29.98;;;2.30;59.70;;;;;;5104676;28;20094;-69
2023/02/11 02:35:59;;;;;;;62.10;31.52;;;2.30;59.80;;;;;;5122311;28;20058;-69
2023/02/11 02:38:28;;;;;;;61.28;30.42;;;2.20;59.90;;;;;;5123623;28;20023;-69
2023/02/11 02:41:01;;;;;;;61.85;30.73;;;2.20;59.90;;;;;;5121445;28;20031;-69
2023/02/11 02:43:28;;;;;;;60.85;31.23;;;2.20;60.00;;;;;;5120230;28;20804;-69
2023/02/11 02:45:55;;;;;;;68.22;31.30;;;2.20;60.10;;;;;;5121771;28;20110;-69
2023/02/11 02:48:34;;;;;;;64.30;31.48;;;2.20;60.10;;;;;;5122091;28;20096;-69
2023/02/11 02:51:17;;;;;;;58.92;30.88;;;2.20;60.20;;;;;;5081299;28;20508;-69
2023/02/11 02:53:53;;;;;;;64.72;31.90;;;2.20;60.20;;;;;;5082762;28;20051;-69
2023/02/11 02:56:49;;;;;;;63.75;30.92;;;2.20;60.20;;;;;;5081397;28;20100;-68
2023/02/11 02:59:40;;;;;;;65.93;31.13;;;2.20;60.30;;;;;;5084001;28;20532;-69
2023/02/11 03:02:18;;;;;;;63.60;31.17;;;2.10;60.30;;;;;;5085000;28;20469;-69
2023/02/11 03:04:51;;;;;;;68.05;31.85;;;2.10;60.40;;;;;;5085304;28;20522;-69
2023/02/11 03:07:40;;;;;;;58.55;30.90;;;2.10;60.50;;;;;;5101560;28;20016;-69
2023/02/11 03:10:33;;;;;;;60.60;30.05;;;2.10;60.60;;;;;;5085169;28;20020;-69
2023/02/11 03:13:00;;;;;;;66.00;31.40;;;2.10;60.70;;;;;;5084137;28;20035;-69
2023/02/11 03:15:29;;;;;;;71.35;33.50;;;2.10;60.80;;;;;;5085163;28;20020;-69
2023/02/11 03:17:59;;;;;;;65.28;32.33;;;2.10;60.90;;;;;;5084005;28;20020;-69
2023/02/11 03:20:29;;;;;;;63.47;31.13;;;2.10;61.00;;;;;;5081615;28;20025;-69
2023/02/11 03:23:05;;;;;;;61.50;31.90;;;2.10;61.00;;;;;;5085316;28;20020;-69
2023/02/11 03:25:36;;;;;;;65.90;33.17;;;2.10;61.10;;;;;;5083330;28;20371;-69
2023/02/11 03:28:26;;;;;;;64.53;32.28;;;2.10;61.10;;;;;;5084750;28;20142;-69
2023/02/11 03:31:33;;;;;;;61.22;32.70;;;2.10;61.10;;;;;;5084844;28;20031;-69
2023/02/11 03:34:01;;;;;;;61.90;31.70;;;2.10;61.20;;;;;;5075523;28;20162;-69
2023/02/11 03:36:38;;;;;;;70.65;33.92;;;2.10;61.10;;;;;;5082656;28;20116;-69
2023/02/11 03:39:04;;;;;;;63.47;30.88;;;2.10;61.30;;;;;;5082694;28;20027;-69
2023/02/11 03:41:32;;;;;;;64.15;31.05;;;2.10;61.20;;;;;;5084208;28;20074;-68
2023/02/11 03:43:59;;;;;;;63.15;32.28;;;2.10;61.30;;;;;;5084224;28;20428;-69
2023/02/11 03:46:32;;;;;;;65.32;33.05;;;2.10;61.30;;;;;;5084588;28;20016;-69
2023/02/11 03:49:03;;;;;;;68.05;31.38;;;2.10;61.40;;;;;;5091333;27;20118;-68
2023/02/11 03:51:31;;;;;;;60.30;29.58;;;2.10;61.40;;;;;;5123327;27;20026;-69
2023/02/11 03:54:00;;;;;;;60.55;28.83;;;2.10;61.40;;;;;;5125604;27;20027;-68
2023/02/11 03:56:29;;;;;;;56.50;28.75;;;2.10;61.40;;;;;;5106840;27;20038;-69
2023/02/11 03:58:56;;;;;;;55.22;29.10;;;2.10;61.50;;;;;;5123631;27;20023;-69
2023/02/11 04:01:21;;;;;;;56.63;30.42;;;2.20;61.70;;;;;;5123867;27;20022;-69
2023/02/11 04:03:47;;;;;;;55.17;28.80;;;2.20;61.70;;;;;;5122890;27;20027;-68
2023/02/11 04:06:13;;;;;;;63.08;30.48;;;2.20;61.70;;;;;;5124354;27;20047;-69
2023/02/11 04:08:39;;;;;;;56.15;29.00;;;2.30;61.60;;;;;;5123997;27;20084;-69
2023/02/11 04:11:04;;;;;;;61.05;31.42;;;2.30;61.60;;;;;;5105897;27;20027;-69
2023/02/11 04:13:30;;;;;;;64.97;32.78;;;2.40;61.50;;;;;;5122883;27;20024;-69
2023/02/11 04:15:56;;;;;;;59.63;31.17;;;2.40;61.40;;;;;;5123644;27;20357;-68
2023/02/11 04:18:22;;;;;;;59.60;31.45;;;2.50;61.30;;;;;;5124122;27;20019;-69
2023/02/11 04:20:49;;;;;;;62.65;31.65;;;2.50;61.20;;;;;;5124590;27;20042;-69
2023/02/11 04:23:15;;;;;;;70.45;32.75;;;2.60;61.10;;;;;;5124536;27;20076;-69
2023/02/11 04:25:42;;;;;;;63.85;34.42;;;2.60;61.00;;;;;;5124247;27;20419;-69
2023/02/11 04:28:07;;;;;;;65.20;36.00;;;2.70;60.90;;;;;;5124196;27;20043;-69
2023/02/11 04:30:33;;;;;;;64.00;33.38;;;2.70;60.50;;;;;;5122920;27;20376;-69
2023/02/11 04:32:59;;;;;;;73.00;37.10;;;2.80;60.40;;;;;;5124032;27;20027;-69
2023/02/11 04:35:25;;;;;;;67.57;34.83;;;2.70;60.00;;;;;;5122239;27;20095;-69
2023/02/11 04:37:51;;;;;;;63.95;34.08;;;2.80;60.00;;;;;;5124893;27;20080;-69
2023/02/11 04:40:16;;;;;;;66.90;35.55;;;2.80;59.90;;;;;;5123110;27;20059;-69
2023/02/11 04:42:42;;;;;;;72.70;38.40;;;2.80;59.70;;;;;;5124620;27;20031;-68
2023/02/11 04:45:08;;;;;;;71.80;38.25;;;2.80;59.60;;;;;;5121987;27;20024;-69
2023/02/11 04:47:35;;;;;;;71.75;34.83;;;2.80;59.50;;;;;;5125359;27;20475;-69
2023/02/11 04:50:00;;;;;;;71.55;35.83;;;2.80;59.60;;;;;;5123338;27;20048;-69
2023/02/11 04:52:26;;;;;;;64.38;33.47;;;2.80;59.60;;;;;;5121368;27;20027;-69
2023/02/11 04:54:52;;;;;;;65.32;33.85;;;2.80;59.70;;;;;;5123444;27;20051;-69
2023/02/11 04:57:18;;;;;;;63.58;33.28;;;2.80;59.70;;;;;;5122967;27;20112;-69
2023/02/11 04:59:43;;;;;;;69.80;36.00;;;2.80;59.80;;;;;;5121830;27;20034;-69
2023/02/11 05:02:09;;;;;;;63.78;34.00;;;2.80;59.80;;;;;;5123239;27;20495;-69
2023/02/11 05:04:35;;;;;;;71.15;36.78;;;2.90;59.90;;;;;;5120918;27;20023;-69
2023/02/11 05:07:01;;;;;;;69.43;36.95;;;2.90;60.00;;;;;;5125970;27;20025;-69
2023/02/11 05:09:26;;;;;;;70.57;36.60;;;3.00;60.00;;;;;;5122417;27;20118;-69
2023/02/11 05:11:52;;;;;;;73.10;37.92;;;3.10;60.00;;;;;;5122023;27;20055;-69
2023/02/11 05:14:18;;;;;;;74.63;37.45;;;3.10;59.80;;;;;;5121812;27;20027;-69
2023/02/11 05:16:44;;;;;;;71.95;37.47;;;3.10;59.70;;;;;;5123720;27;20027;-69
2023/02/11 05:19:09;;;;;;;75.97;37.67;;;3.20;59.60;;;;;;5121419;27;20032;-70
2023/02/11 05:21:35;;;;;;;69.95;37.88;;;3.20;59.40;;;;;;5124047;27;20019;-69
2023/02/11 05:24:01;;;;;;;75.72;37.35;;;3.30;59.40;;;;;;5105419;27;20038;-69
2023/02/11 05:26:27;;;;;;;70.88;38.05;;;3.30;59.30;;;;;;5121396;27;20381;-70
2023/02/11 05:28:53;;;;;;;66.05;36.20;;;3.40;59.30;;;;;;5124036;27;20015;-69
2023/02/11 05:31:19;;;;;;;74.25;37.35;;;3.40;59.30;;;;;;5121898;27;20106;-69
2023/02/11 05:33:44;;;;;;;84.13;42.72;;;3.40;59.30;;;;;;5123717;27;20049;-69
2023/02/11 05:36:12;;;;;;;72.53;38.15;;;3.50;59.00;;;;;;5121072;27;20455;-70
2023/02/11 05:38:38;;;;;;;76.05;40.78;;;3.40;59.00;;;;;;5123285;27;20023;-69
2023/02/11 05:41:05;;;;;;;72.88;37.22;;;3.50;59.10;;;;;;5121695;27;20027;-67
2023/02/11 05:43:31;;;;;;;77.82;40.33;;;3.50;59.10;;;;;;5124093;27;20019;-70
2023/02/11 05:45:57;;;;;;;74.93;39.28;;;3.40;58.90;;;;;;5121899;27;20099;-68
2023/02/11 05:48:23;;;;;;;78.13;39.92;;;3.40;59.50;;;;;;5125956;27;20110;-68
2023/02/11 05:50:49;;;;;;;73.50;38.45;;;3.40;59.00;;;;;;5105320;27;20068;-68
2023/02/11 05:53:14;;;;;;;76.82;39.75;;;3.30;58.90;;;;;;5121033;28;20516;-68
2023/02/11 05:55:40;;;;;;;70.75;37.28;;;3.30;59.00;;;;;;5122142;28;20019;-68
2023/02/11 05:58:06;;;;;;;73.20;39.13;;;3.30;59.10;;;;;;5120696;28;20386;-68
2023/02/11 06:00:33;;;;;;;70.00;37.35;;;3.30;59.20;;;;;;5104876;28;20417;-68
2023/02/11 06:02:59;;;;;;;87.82;40.05;;;3.30;59.20;;;;;;5105861;28;20039;-68
2023/02/11 06:05:25;;;;;;;75.30;38.05;;;3.30;59.20;;;;;;5121347;28;20345;-68
2023/02/11 06:07:51;;;;;;;79.68;41.53;;;3.30;59.20;;;;;;5122822;28;20059;-68
2023/02/11 06:10:17;;;;;;;79.10;39.05;;;3.30;59.10;;;;;;5123389;28;20015;-68
2023/02/11 06:12:43;;;;;;;72.40;38.78;;;3.20;59.20;;;;;;5105210;28;20388;-68
2023/02/11 06:15:09;;;;;;;74.35;36.45;;;3.20;59.30;;;;;;5122928;28;20018;-68
2023/02/11 06:17:36;;;;;;;76.28;39.90;;;3.20;59.40;;;;;;5123156;28;20531;-68
2023/02/11 06:20:05;;;;;;;76.25;39.17;;;3.20;59.40;;;;;;5123507;28;20023;-68
2023/02/11 06:22:31;;;;;;;68.70;36.03;;;3.20;59.30;;;;;;5125094;28;20106;-68
2023/02/11 06:24:57;;;;;;;73.25;37.85;;;3.20;59.40;;;;;;5122364;28;20095;-68
2023/02/11 06:27:22;;;;;;;78.47;39.38;;;3.30;59.80;;;;;;5124161;28;20061;-68
2023/02/11 06:29:48;;;;;;;76.43;37.20;;;3.30;59.40;;;;;;5120609;28;20031;-68
2023/02/11 06:32:14;;;;;;;80.43;39.30;;;3.30;59.30;;;;;;5126094;27;20475;-68
2023/02/11 06:34:40;;;;;;;76.32;37.53;;;3.30;59.30;;;;;;5124026;27;20046;-69
2023/02/11 06:37:06;;;;;;;69.70;36.78;;;3.30;59.30;;;;;;5125114;27;20019;-68
2023/02/11 06:39:34;;;;;;;73.50;38.33;;;3.30;59.30;;;;;;5125860;27;20030;-68
2023/02/11 06:42:00;;;;;;;71.93;37.40;;;3.30;59.40;;;;;;5125803;27;20353;-68
2023/02/11 06:44:26;;;;;;;66.78;35.85;;;3.40;59.50;;;;;;5127072;27;20052;-68
2023/02/11 06:46:51;;;;;;;72.93;38.88;;;3.40;59.60;;;;;;5128535;27;20114;-68
2023/02/11 06:49:17;;;;;;;77.45;39.47;;;3.50;59.60;;;;;;5126614;27;20055;-68
2023/02/11 06:51:43;;;;;;;75.63;39.08;;;3.50;59.50;;;;;;5126310;27;20035;-68
2023/02/11 06:54:11;;;;;;;74.10;39.42;;;3.50;59.50;;;;;;5125427;27;20023;-68
2023/02/11 06:56:39;;;;;;;73.25;37.80;;;3.50;59.40;;;;;;5126042;27;20409;-68
2023/02/11 06:59:06;;;;;;;69.05;37.50;;;3.50;59.50;;;;;;5134373;27;20075;-68
2023/02/11 07:01:32;;;;;;;70.57;38.03;;;3.60;59.70;;;;;;5105648;27;20400;-69
2023/02/11 07:03:58;;;;;;;67.55;36.70;;;3.70;59.70;;;;;;5106763;27;20088;-69
2023/02/11 07:06:26;;;;;;;67.90;37.22;;;3.80;59.70;;;;;;5125528;27;20020;-68
2023/02/11 07:08:53;;;;;;;70.72;37.38;;;3.80;59.70;;;;;;5108447;27;20430;-68
2023/02/11 07:11:25;;;;;;;66.78;35.42;;;3.90;59.60;;;;;;5127548;27;20024;-68
2023/02/11 07:13:53;;;;;;;74.78;36.42;;;4.00;59.60;;;;;;5124880;27;20040;-69
2023/02/11 07:16:19;;;;;;;71.43;37.08;;;4.10;59.50;;;;;;5105663;27;20095;-68
2023/02/11 07:18:46;;;;;;;70.72;36.95;;;4.20;59.40;;;;;;5125574;27;20471;-68
2023/02/11 07:21:15;;;;;;;74.30;40.75;;;4.30;59.40;;;;;;5126121;27;20042;-68
2023/02/11 07:23:41;;;;;;;70.72;36.67;;;4.30;59.70;;;;;;5126615;27;20086;-69
2023/02/11 07:26:10;;;;;;;71.20;36.90;;;4.40;58.90;;;;;;5126044;27;20019;-68
2023/02/11 07:28:39;;;;;;;79.38;38.67;;;4.50;58.90;;;;;;5125837;27;20019;-69
2023/02/11 07:31:26;;;;;;;69.57;35.45;;;4.50;58.60;;;;;;5109369;27;20108;-68
2023/02/11 07:33:54;;;;;;;71.35;38.03;;;4.60;58.70;;;;;;5124188;27;20027;-69
2023/02/11 07:36:21;;;;;;;65.22;35.83;;;4.60;58.60;;;;;;5123473;27;20007;-69
2023/02/11 07:38:47;;;;;;;65.20;35.60;;;4.70;58.60;;;;;;5124486;27;20027;-69
2023/02/11 07:41:16;;;;;;;66.50;34.42;;;4.80;58.50;;;;;;5106889;27;20034;-69
2023/02/11 07:43:43;;;;;;;63.70;35.33;;;4.80;58.50;;;;;;5123514;27;20134;-69
2023/02/11 07:46:14;;;;;;;65.03;35.28;;;4.80;58.40;;;;;;5125736;27;20081;-69
2023/02/11 07:48:40;;;;;;;72.65;35.33;;;4.90;58.40;;;;;;5124993;27;20484;-69
2023/02/11 07:51:08;;;;;;;66.90;36.92;;;4.90;58.30;;;;;;5123522;27;20028;-69
2023/02/11 07:53:34;;;;;;;70.38;38.13;;;5.00;58.30;;;;;;5109982;27;20017;-69
2023/02/11 07:56:00;;;;;;;69.05;36.97;;;5.00;58.00;;;;;;5132368;27;20011;-69
2023/02/11 07:58:26;;;;;;;66.18;35.92;;;5.00;57.80;;;;;;5135949;27;20488;-69
2023/02/11 08:00:52;;;;;;;67.38;38.00;;;5.00;57.90;;;;;;5135741;27;20031;-69
2023/02/11 08:03:18;;;;;;;66.75;37.58;;;5.10;57.90;;;;;;5135302;27;20027;-69
2023/02/11 08:05:44;;;;;;;77.55;38.15;;;5.10;57.70;;;;;;5116745;27;20023;-69
2023/02/11 08:08:09;;;;;;;73.05;39.70;;;5.10;57.50;;;;;;5134844;27;20392;-69
2023/02/11 08:10:35;;;;;;;75.70;40.08;;;5.20;57.50;;;;;;5135319;27;20560;-69
2023/02/11 08:13:01;;;;;;;71.72;38.53;;;5.10;57.30;;;;;;5134044;27;20023;-69
2023/02/11 08:15:27;;;;;;;69.15;36.85;;;5.10;57.20;;;;;;5134729;27;20042;-69
2023/02/11 08:17:53;;;;;;;68.78;36.60;;;5.20;57.30;;;;;;5134413;27;20128;-69
2023/02/11 08:20:19;;;;;;;66.07;36.17;;;5.20;57.50;;;;;;5135167;27;20038;-69
2023/02/11 08:22:44;;;;;;;72.35;37.28;;;5.30;57.60;;;;;;5115895;27;20023;-69
2023/02/11 08:25:10;;;;;;;75.53;39.53;;;5.40;57.70;;;;;;5135468;27;20027;-69
2023/02/11 08:27:36;;;;;;;57.70;34.22;;;5.50;57.50;;;;;;5134642;27;20115;-69
2023/02/11 08:30:02;;;;;;;69.43;37.50;;;5.60;57.40;;;;;;5135354;27;20387;-69
2023/02/11 08:32:28;;;;;;;74.75;37.78;;;5.70;57.00;;;;;;5121527;27;20024;-69
2023/02/11 08:34:54;;;;;;;66.18;35.65;;;5.80;56.90;;;;;;5114557;28;20027;-69
2023/02/11 08:37:20;;;;;;;69.10;37.58;;;5.80;56.70;;;;;;5119156;27;20132;-69
2023/02/11 08:39:46;;;;;;;68.53;37.22;;;5.90;56.60;;;;;;5134759;27;20356;-70
2023/02/11 08:42:14;;;;;;;65.43;35.33;;;5.90;56.40;;;;;;5131872;27;20031;-69
2023/02/11 08:44:40;;;;;;;64.68;34.25;;;5.90;56.50;;;;;;5134260;27;20050;-69
2023/02/11 08:47:06;;;;;;;68.28;37.90;;;5.90;56.70;;;;;;5115530;27;20027;-69
2023/02/11 08:49:32;;;;;;;61.05;35.08;;;6.00;56.70;;;;;;5118021;27;20048;-69
2023/02/11 08:52:02;;;;;;;65.85;35.60;;;6.00;56.70;;;;;;5095871;28;20027;-70
2023/02/11 08:54:29;;;;;;;59.17;33.78;;;6.00;56.50;;;;;;5133386;27;20019;-69
2023/02/11 08:56:56;;;;;;;63.25;34.60;;;6.10;56.90;;;;;;5129309;27;20426;-69
2023/02/11 08:59:22;;;;;;;57.92;33.28;;;6.20;56.90;;;;;;5127327;27;20026;-69
2023/02/11 09:01:48;;;;;;;61.30;32.20;;;6.30;57.10;;;;;;5137079;27;20039;-70
2023/02/11 09:04:13;;;;;;;55.85;32.20;;;6.50;57.10;;;;;;5113955;28;20015;-69
2023/02/11 09:06:39;;;;;;;55.20;31.83;;;6.60;56.90;;;;;;5115974;27;20122;-69
2023/02/11 09:09:09;;;;;;;58.47;32.83;;;6.80;56.80;;;;;;5131553;27;20141;-69
2023/02/11 09:11:35;;;;;;;56.28;31.95;;;6.90;56.60;;;;;;5108668;27;20384;-69
2023/02/11 09:14:03;;;;;;;61.03;33.67;;;7.00;56.20;;;;;;5140227;27;20027;-69
2023/02/11 09:16:30;;;;;;;58.72;32.75;;;7.10;55.70;;;;;;5132187;27;20102;-69
2023/02/11 09:18:58;;;;;;;65.97;36.03;;;7.10;55.40;;;;;;5144824;27;20031;-70
2023/02/11 09:21:25;;;;;;;57.13;31.63;;;7.20;55.10;;;;;;5125055;27;20487;-69
2023/02/11 09:23:51;;;;;;;62.38;32.38;;;7.20;55.20;;;;;;5131336;27;20027;-70
2023/02/11 09:26:23;;;;;;;61.65;35.13;;;7.30;55.10;;;;;;5134477;27;20038;-70
2023/02/11 09:28:50;;;;;;;67.53;35.22;;;7.30;54.80;;;;;;5140837;27;20019;-70
2023/02/11 09:31:20;;;;;;;66.50;34.70;;;7.30;54.90;;;;;;5133991;27;20353;-70
2023/02/11 09:33:48;;;;;;;59.00;33.42;;;7.30;54.80;;;;;;5120914;27;20499;-70
2023/02/11 09:36:17;;;;;;;56.42;33.03;;;7.40;54.80;;;;;;5132830;27;20093;-70
2023/02/11 09:38:44;;;;;;;56.33;32.47;;;7.40;54.70;;;;;;5125771;27;20499;-70
2023/02/11 09:41:33;;;;;;;50.45;29.98;;;7.40;54.60;;;;;;5133033;27;20039;-70
2023/02/11 09:44:03;;;;;;;47.80;29.30;;;7.50;54.90;;;;;;5118331;27;20039;-70
2023/02/11 09:46:38;;;;;;;59.33;32.58;;;7.60;55.10;;;;;;5133376;27;20023;-70
2023/02/11 09:49:05;;;;;;;58.15;32.85;;;7.60;54.50;;;;;;5132919;27;20045;-70
2023/02/11 09:51:37;;;;;;;57.05;32.53;;;7.70;54.40;;;;;;5133368;27;20019;-70
2023/02/11 09:54:38;;;;;;;60.15;35.38;;;7.80;54.50;;;;;;5108657;28;20111;-70
2023/02/11 09:57:09;;;;;;;69.57;35.72;;;7.70;53.60;;;;;;5111491;28;20031;-70
2023/02/11 09:59:35;;;;;;;58.97;33.28;;;7.80;53.60;;;;;;5113436;28;20044;-70
2023/02/11 10:02:11;;;;;;;60.55;35.15;;;7.90;53.80;;;;;;5132777;28;20018;-70
2023/02/11 10:04:40;;;;;;;56.67;32.17;;;7.90;54.10;;;;;;5130176;27;20019;-70
2023/02/11 10:07:20;;;;;;;60.58;31.23;;;8.00;53.80;;;;;;5134557;27;20023;-70
2023/02/11 10:10:10;;;;;;;52.90;30.35;;;8.10;54.00;;;;;;5149866;27;20440;-70
2023/02/11 10:13:23;;;;;;;56.42;31.05;;;8.20;53.40;;;;;;5143967;27;20054;-70
2023/02/11 10:16:04;;;;;;;52.58;29.15;;;8.30;53.40;;;;;;5085110;27;20030;-69
2023/02/11 10:18:41;;;;;;;51.05;29.00;;;8.40;53.10;;;;;;5139748;27;20019;-70
2023/02/11 10:21:34;;;;;;;49.13;29.63;;;8.50;53.00;;;;;;5137117;27;20114;-70
2023/02/11 10:24:09;;;;;;;54.22;30.90;;;8.60;52.90;;;;;;5136302;27;20023;-74
2023/02/11 10:26:38;;;;;;;55.72;29.80;;;8.70;52.30;;;;;;5145982;27;20074;-74
2023/02/11 10:29:21;;;;;;;50.28;28.77;;;8.70;52.10;;;;;;5140334;27;20020;-74
2023/02/11 10:31:48;;;;;;;48.92;28.33;;;8.70;52.20;;;;;;5154108;27;20019;-74
2023/02/11 10:34:14;;;;;;;52.53;29.73;;;8.80;52.40;;;;;;5131685;27;20439;-72
2023/02/11 10:36:43;;;;;;;54.83;30.00;;;8.80;51.40;;;;;;5130011;27;20030;-73
2023/02/11 10:39:20;;;;;;;49.03;28.25;;;8.80;51.40;;;;;;5117511;27;20027;-74
2023/02/11 10:41:56;;;;;;;47.00;28.08;;;8.80;51.10;;;;;;5124790;27;20028;-74
2023/02/11 10:44:38;;;;;;;48.15;28.38;;;8.90;51.40;;;;;;5141104;27;20050;-73
2023/02/11 10:47:14;;;;;;;43.92;26.83;;;8.90;51.20;;;;;;5142237;27;20031;-73
2023/02/11 10:49:43;;;;;;;44.03;26.42;;;9.00;51.10;;;;;;5130979;27;20508;-74
2023/02/11 10:52:22;;;;;;;44.65;26.08;;;9.00;51.40;;;;;;5152283;27;20072;-73
2023/02/11 10:55:15;;;;;;;46.88;27.27;;;9.10;50.60;;;;;;5147458;27;20084;-73
2023/02/11 10:57:56;;;;;;;43.35;25.33;;;9.10;50.50;;;;;;5121670;27;20106;-74
2023/02/11 11:00:36;;;;;;;42.38;26.60;;;9.20;50.50;;;;;;5151512;27;20344;-74
2023/02/11 11:03:17;;;;;;;46.58;25.73;;;9.20;50.50;;;;;;5131166;27;20452;-73
2023/02/11 11:05:58;;;;;;;46.90;26.08;;;9.30;50.50;;;;;;5140006;27;20020;-74
2023/02/11 11:09:00;;;;;;;51.88;29.92;;;9.30;50.50;;;;;;5149881;27;20523;-73
2023/02/11 11:11:26;;;;;;;43.20;26.48;;;9.30;49.80;;;;;;5048290;28;20086;-72
2023/02/11 11:13:56;;;;;;;48.50;28.38;;;9.30;49.80;;;;;;5049567;28;20094;-73
2023/02/11 11:16:31;;;;;;;46.22;26.45;;;9.30;49.40;;;;;;5032461;28;20065;-72
2023/02/11 11:19:06;;;;;;;46.15;26.33;;;9.30;49.60;;;;;;5027350;28;20041;-74
2023/02/11 11:21:54;;;;;;;43.08;26.27;;;9.30;50.00;;;;;;5048971;28;20579;-73
2023/02/11 11:24:33;;;;;;;47.53;26.35;;;9.30;50.10;;;;;;5028251;28;20074;-73
2023/02/11 11:27:01;;;;;;;42.40;26.08;;;9.30;49.80;;;;;;5040422;28;20457;-73
2023/02/11 11:29:35;;;;;;;39.55;24.73;;;9.30;49.40;;;;;;5043318;28;20022;-73
2023/02/11 11:32:20;;;;;;;40.08;24.38;;;9.40;49.80;;;;;;5028811;28;20035;-74
2023/02/11 11:34:54;;;;;;;43.13;24.98;;;9.40;50.10;;;;;;5025300;28;20048;-74
2023/02/11 11:37:29;;;;;;;46.08;26.95;;;9.50;50.00;;;;;;5033583;28;20026;-74
2023/02/11 11:40:00;;;;;;;45.08;26.60;;;9.50;49.60;;;;;;5016273;28;20182;-73
2023/02/11 11:42:31;;;;;;;43.83;24.73;;;9.50;49.80;;;;;;5031010;28;20033;-73
2023/02/11 11:45:03;;;;;;;48.63;27.20;;;9.60;49.70;;;;;;5057850;27;20041;-72
2023/02/11 11:47:44;;;;;;;44.97;27.30;;;9.60;49.20;;;;;;5146590;27;20384;-74
2023/02/11 11:50:13;;;;;;;50.13;28.60;;;9.60;49.30;;;;;;5122625;27;20038;-73
2023/02/11 11:52:49;;;;;;;44.17;26.13;;;9.60;49.40;;;;;;5144637;27;20090;-74
2023/02/11 11:55:28;;;;;;;47.85;27.10;;;9.70;49.40;;;;;;5122869;27;20028;-74
2023/02/11 11:57:55;;;;;;;43.92;25.63;;;9.80;48.80;;;;;;5151364;27;20143;-74
2023/02/11 12:00:39;;;;;;;43.28;26.33;;;9.80;49.00;;;;;;5140229;27;20029;-73
2023/02/11 12:03:39;;;;;;;48.30;27.05;;;9.90;48.90;;;;;;5142742;27;20460;-73
2023/02/11 12:06:23;;;;;;;54.63;31.02;;;9.90;48.30;;;;;;5139678;27;20019;-74
2023/02/11 12:09:21;;;;;;;47.10;28.23;;;10.00;48.70;;;;;;5149909;27;20380;-73
2023/02/11 12:11:56;;;;;;;41.53;25.88;;;10.00;48.20;;;;;;5088567;27;20114;-74
2023/02/11 12:14:40;;;;;;;42.38;25.73;;;10.10;48.50;;;;;;5143725;27;20127;-73
2023/02/11 12:17:33;;;;;;;43.90;25.88;;;10.10;48.40;;;;;;5146993;27;20081;-74
2023/02/11 12:20:17;;;;;;;42.70;25.48;;;10.10;47.80;;;;;;5130484;27;20038;-75
2023/02/11 12:22:57;;;;;;;46.43;26.80;;;10.10;48.10;;;;;;5111669;27;20055;-75
2023/02/11 12:25:41;;;;;;;45.35;27.10;;;10.20;47.80;;;;;;5136875;27;20480;-74
2023/02/11 12:28:33;;;;;;;40.67;25.55;;;10.10;47.80;;;;;;5122793;27;20436;-74
2023/02/11 12:31:04;;;;;;;40.05;23.75;;;10.20;47.80;;;;;;5145950;27;20475;-75
2023/02/11 12:33:56;;;;;;;46.30;26.05;;;10.20;48.10;;;;;;5138550;27;20019;-75
2023/02/11 12:36:54;;;;;;;41.40;24.88;;;10.20;47.50;;;;;;5133181;27;20094;-75
2023/02/11 12:39:44;;;;;;;39.58;23.65;;;10.20;47.20;;;;;;5132433;27;20027;-74
2023/02/11 12:45:19;;;;;;;42.45;24.17;;;10.20;47.50;;;;;;5148810;27;20070;-75
2023/02/11 12:48:03;;;;;;;39.08;23.40;;;10.20;47.60;;;;;;5138153;27;20019;-75
2023/02/11 12:50:58;;;;;;;37.28;23.52;;;10.20;47.40;;;;;;5124012;27;20142;-75
2023/02/11 12:53:33;;;;;;;38.45;24.10;;;10.20;47.40;;;;;;5098656;28;20077;-75
2023/02/11 12:56:04;;;;;;;40.38;25.13;;;10.20;47.40;;;;;;5102232;27;20460;-74
2023/02/11 12:58:35;;;;;;;44.10;24.23;;;10.10;47.10;;;;;;5125985;27;20008;-73
2023/02/11 13:01:34;;;;;;;46.92;24.58;;;10.10;47.30;;;;;;5126021;27;20076;-73
2023/02/11 13:04:20;;;;;;;42.63;23.83;;;10.00;47.40;;;;;;5096100;27;20391;-74